Alderson, West Virginia
Current Conditions -  °F | °C
As of 3:55 PM on Thursday 23 Oct 2014 (Local Time) from KLWB Reporting Station
Overcast Overcast  
Wind Chill: 10°   Ceiling: 2000
Heat Index: 10°   Visibility: 10mi
Dew Point:   Wind: 6mph
Humidity: 68%   Direction: 300°WNW
Pressure: 30.09"   Gusts: NA
Location:  37.73°N, 80.64°W
Report Text: KLWB 231955Z AUTO 30005KT 10SM OVC020 10/04 A3009 RMK AO2 T01000044
Loading
Personal Weather Stations






























Interactive Weather Map
Tropical Storm Tracking
New forecast layout! Learn more

10-Day Weather Forecast

Advertisements
Track Severe Weather on mobile